Dades meteomassalio
Diari Summary for Agost 15, 2017 Units:  Metric    English   Both
« Previous Day
Next Day »
Diari Semanal Mensual Anual Personalitzat
  Maxima: Minima: Mijana:
Temperatura: -17.8 °C -8.8 °C -4.2 °C
Rosada: -17.8 °C -11.8 °C -9.1 °C
Humitat: Humidity % 39 % 59 %
Velocitat del vent: 0 km/h 0 km/h 12.6 km/h
Racha vent: 0 km/h - -
Vent:- - ESE
Pressio: 0 hPa 34303.6 hPa -
Pluja: 7.62 mm    
Historical Graphs
 
 
Tabular Data for Agost 15, 2017
Time Temperature Dew Point Pressure Wind Wind Speed Wind Gust Humidity Rainfall Rate (Hourly) solar Conditions
-17.8 °C -17.8 °C 0 hPa Calm     Humidity % 0 mm SolarRadiationWatts/m^2 W/m2 Conditions
00:04 -4.9 °C -10.9 °C 34384.8 hPa Calm     51 % 0 mm 0.0 W/m2 CLR
00:09 -4.9 °C -10.7 °C 34395 hPa Calm     52 % 0 mm 0.0 W/m2 CLR
00:14 -5.1 °C -10.3 °C 34395 hPa Calm     55 % 0 mm 0.0 W/m2 CLR
00:19 -5.1 °C -10.2 °C 34395 hPa Calm     56 % 0 mm 0.0 W/m2 CLR
00:24 -5.2 °C -10.7 °C 34384.8 hPa Calm     54 % 0 mm 0.0 W/m2 CLR
00:29 -5.3 °C -10.4 °C 34384.8 hPa Calm     56 % 0 mm 0.0 W/m2 CLR
00:34 -5.4 °C -10.5 °C 34395 hPa Calm     56 % 0 mm 0.0 W/m2 CLR
00:39 -5.6 °C -10.7 °C 34395 hPa Calm     56 % 0 mm 0.0 W/m2 CLR
00:44 -5.6 °C -10.7 °C 34395 hPa Calm     56 % 0 mm 0.0 W/m2 CLR
00:49 -5.7 °C -10.5 °C 34395 hPa Calm     58 % 0 mm 0.0 W/m2 CLR
00:54 -5.8 °C -10.9 °C 34395 hPa Calm     56 % 0 mm 0.0 W/m2 CLR
00:59 -5.9 °C -10.4 °C 34395 hPa Calm     60 % 0 mm 0.0 W/m2 CLR
01:04 -5.8 °C -10.3 °C 34395 hPa Calm     60 % 0 mm 0.0 W/m2 CLR
01:09 -5.9 °C -10.9 °C 34395 hPa Calm     56 % 0 mm 0.0 W/m2 CLR
01:14 -5.9 °C -10.7 °C 34395 hPa Calm     58 % 0 mm 0.0 W/m2 CLR
01:19 -6.1 °C -10.7 °C 34395 hPa Calm     59 % 0 mm 0.0 W/m2 CLR
01:24 -6.1 °C -11 °C 34395 hPa Calm     57 % 0 mm 0.0 W/m2 CLR
01:29 -6.2 °C -10.9 °C 34395 hPa Calm     58 % 0 mm 0.0 W/m2 CLR
01:34 -6.3 °C -11 °C 34395 hPa Calm     58 % 0 mm 0.0 W/m2 CLR
01:39 -6.3 °C -11.1 °C 34395 hPa Calm     58 % 0 mm 0.0 W/m2 CLR
01:44 -6.3 °C -11.4 °C 34395 hPa Calm     56 % 0 mm 0.0 W/m2 CLR
01:49 -6.4 °C -11.5 °C 34395 hPa Calm     56 % 0 mm 0.0 W/m2 CLR
01:54 -6.6 °C -11.3 °C 34395 hPa Calm     58 % 0 mm 0.0 W/m2 CLR
01:59 -6.6 °C -10.9 °C 34395 hPa Calm     61 % 0 mm 0.0 W/m2 CLR
02:04 -6.6 °C -11.2 °C 34395 hPa Calm     59 % 0 mm 0.0 W/m2 CLR
02:09 -6.6 °C -10.9 °C 34395 hPa Calm     61 % 0 mm 0.0 W/m2 CLR
02:14 -6.6 °C -10.4 °C 34395 hPa Calm     65 % 0 mm 0.0 W/m2 CLR
02:19 -6.7 °C -11.4 °C 34395 hPa Calm     58 % 0 mm 0.0 W/m2 CLR
02:25 -6.8 °C -11.4 °C 34395 hPa Calm     59 % 0 mm 0.0 W/m2 CLR
02:30 -6.9 °C -11.5 °C 34384.8 hPa Calm     59 % 0 mm 0.0 W/m2 CLR
02:35 -7.1 °C -11.8 °C 34395 hPa Calm     58 % 0 mm 0.0 W/m2 CLR
02:40 -7.1 °C -11.4 °C 34395 hPa Calm     61 % 0 mm 0.0 W/m2 CLR
02:45 -7.2 °C -11.4 °C 34395 hPa Calm     61 % 0 mm 0.0 W/m2 CLR
02:50 -7.3 °C -11.4 °C 34395 hPa Calm     62 % 0 mm 0.0 W/m2 CLR
02:55 -7.3 °C -11.6 °C 34395 hPa Calm     61 % 0 mm 0.0 W/m2 CLR
03:00 -7.3 °C -11 °C 34395 hPa Calm     65 % 0 mm 0.0 W/m2 CLR
03:05 -7.3 °C -11.3 °C 34395 hPa Calm     63 % 0 mm 0.0 W/m2 CLR
03:10 -7.3 °C -11 °C 34405.1 hPa Calm   1.3 km/h 65 % 0 mm 0.0 W/m2 CLR
03:15 -7 °C -9.8 °C 34405.1 hPa Calm     73 % 0 mm 0.0 W/m2 CLR
03:20 -7 °C -11.2 °C 34405.1 hPa Calm     62 % 0 mm 0.0 W/m2 CLR
03:25 -7.2 °C -11.4 °C 34405.1 hPa Calm     61 % 0 mm 0.0 W/m2 CLR
03:30 -7.3 °C -11.2 °C 34405.1 hPa Calm     64 % 0 mm 0.0 W/m2 CLR
03:35 -7.3 °C -11.2 °C 34405.1 hPa Calm     64 % 0 mm 0.0 W/m2 CLR
03:40 -7.3 °C -10.9 °C 34405.1 hPa Calm     66 % 0 mm 0.0 W/m2 CLR
03:45 -7.4 °C -11.4 °C 34418.7 hPa Calm     63 % 0 mm 0.0 W/m2 CLR
03:50 -7.6 °C -11.6 °C 34418.7 hPa Calm     63 % 0 mm 0.0 W/m2 CLR
03:55 -7.7 °C -11.5 °C 34418.7 hPa Calm     64 % 0 mm 0.0 W/m2 CLR
04:00 -7.8 °C -11.8 °C 34405.1 hPa Calm     63 % 0 mm 0.0 W/m2 CLR
04:05 -7.8 °C -11.2 °C 34405.1 hPa Calm     68 % 0 mm 0.0 W/m2 CLR
04:10 -7.8 °C -11.4 °C 34405.1 hPa Calm     66 % 0 mm 0.0 W/m2 CLR
04:11 -7.8 °C -11.6 °C 34405.1 hPa Calm     65 % 0 mm 0.0 W/m2 CLR
04:16 -7.9 °C -11.6 °C 34418.7 hPa Calm     65 % 0 mm 0.0 W/m2 CLR
04:21 -7.9 °C -11.4 °C 34405.1 hPa Calm     67 % 0 mm 0.0 W/m2 CLR
04:26 -7.9 °C -11.2 °C 34418.7 hPa Calm     68 % 0 mm 0.0 W/m2 CLR
04:31 -7.9 °C -11.2 °C 34418.7 hPa Calm     68 % 0 mm 0.0 W/m2 CLR
04:36 -7.8 °C -10.4 °C 34418.7 hPa Calm     74 % 0 mm 0.0 W/m2 CLR
04:41 -7.8 °C -10.3 °C 34418.7 hPa Calm     75 % 0 mm 0.0 W/m2 CLR
04:46 -7.9 °C -11.5 °C 34405.1 hPa Calm     66 % 0 mm 0.0 W/m2 CLR
04:51 -8 °C -11.2 °C 34405.1 hPa Calm     69 % 0 mm 0.0 W/m2 CLR
04:56 -8.1 °C -11.3 °C 34405.1 hPa Calm     69 % 0 mm 0.0 W/m2 CLR
05:01 -8.1 °C -11.2 °C 34405.1 hPa Calm     70 % 0 mm 0.0 W/m2 CLR
05:06 -8.1 °C -10.8 °C 34418.7 hPa Calm     73 % 0 mm 0.0 W/m2 CLR
05:11 -8.1 °C -11.1 °C 34418.7 hPa Calm     71 % 0 mm 0.0 W/m2 CLR
05:16 -8.1 °C -11.2 °C 34405.1 hPa Calm     70 % 0 mm 0.0 W/m2 CLR
05:21 -8.2 °C -11.6 °C 34405.1 hPa Calm     67 % 0 mm 0.0 W/m2 CLR
05:24 -8.2 °C -11.5 °C 34405.1 hPa Calm     68 % 0 mm 0.0 W/m2 CLR
05:29 -8.3 °C -11.6 °C 34405.1 hPa Calm     68 % 0 mm 0.0 W/m2 CLR
05:34 -8.3 °C -11.2 °C 34405.1 hPa Calm     72 % 0 mm 0.0 W/m2 CLR
05:39 -8.4 °C -11.3 °C 34405.1 hPa Calm     71 % 0 mm 0.0 W/m2 CLR
05:44 -8.3 °C -10.9 °C 34405.1 hPa WSW 9 km/h 9 km/h 74 % 0 mm 0.0 W/m2 CLR
05:49 -8.3 °C -10.8 °C 34418.7 hPa Calm     75 % 0 mm 0.0 W/m2 CLR
05:54 -8.3 °C -11.1 °C 34418.7 hPa Calm     73 % 0 mm 0.0 W/m2 CLR
05:59 -8.4 °C -11.3 °C 34418.7 hPa Calm     71 % 0 mm 0.0 W/m2 CLR
06:04 -8.5 °C -11.3 °C 34418.7 hPa SSW 6 km/h 6 km/h 72 % 0 mm 0.0 W/m2 CLR
06:09 -8.5 °C -11.2 °C 34418.7 hPa SSW 7.7 km/h 7.7 km/h 73 % 0 mm 0.0 W/m2 CLR
06:14 -8.4 °C -10.7 °C 34418.7 hPa Calm     77 % 0 mm 0.0 W/m2 CLR
06:19 -8.4 °C -10.7 °C 34418.7 hPa Calm     76 % 0 mm 0.0 W/m2 CLR
06:24 -8.3 °C -10.8 °C 34418.7 hPa Calm     75 % 0 mm 0.0 W/m2 CLR
06:29 -8.3 °C -10.8 °C 34418.7 hPa Calm     75 % 0 mm 0.0 W/m2 CLR
06:34 -8.4 °C -10.9 °C 34418.7 hPa Calm     74 % 0 mm 0.0 W/m2 CLR
06:39 -8.4 °C -11 °C 34418.7 hPa Calm     74 % 0 mm 0.0 W/m2 CLR
06:44 -8.5 °C -10.9 °C 34418.7 hPa Calm     75 % 0 mm 0.0 W/m2 CLR
06:49 -8.6 °C -11 °C 34418.7 hPa Calm     75 % 0 mm 0.0 W/m2 CLR
06:54 -8.6 °C -10.9 °C 34418.7 hPa Calm     76 % 0 mm 0.0 W/m2 CLR
06:59 -8.7 °C -10.9 °C 34428.8 hPa Calm     77 % 0 mm 0.0 W/m2 CLR
07:04 -8.7 °C -10.8 °C 34428.8 hPa Calm     78 % 0 mm 0.0 W/m2 OVC
07:09 -8.7 °C -11.1 °C 34428.8 hPa Calm     76 % 0 mm 0.0 W/m2 OVC
07:15 -8.7 °C -11.1 °C 34428.8 hPa Calm     76 % 0 mm 7.0 W/m2 OVC
07:20 -8.8 °C -11.1 °C 34428.8 hPa Calm     77 % 0 mm 11.0 W/m2 BKN
07:25 -8.8 °C -10.8 °C 34428.8 hPa Calm     79 % 0 mm 14.0 W/m2 BKN
07:30 -8.7 °C -10.8 °C 34428.8 hPa Calm     79 % 0 mm 21.0 W/m2 BKN
07:35 -8.7 °C -10.8 °C 34428.8 hPa Calm     79 % 0 mm 26.0 W/m2 BKN
07:40 -8.7 °C -10.6 °C 34428.8 hPa Calm     80 % 0 mm 32.0 W/m2 BKN
07:45 -8.6 °C -10.7 °C 34428.8 hPa Calm     78 % 0 mm 39.0 W/m2 BKN
07:50 -8.6 °C -11 °C 34428.8 hPa Calm     75 % 0 mm 49.0 W/m2 SCT
07:55 -8.5 °C -11.1 °C 34442.4 hPa Calm     74 % 0 mm 58.0 W/m2 SCT
08:00 -8.4 °C -11.1 °C 34428.8 hPa Calm     74 % 0 mm 65.0 W/m2 SCT
08:05 -8.4 °C -10.8 °C 34442.4 hPa Calm   1 km/h 76 % 0 mm 77.0 W/m2 FEW
08:10 -8.3 °C -10.7 °C 34442.4 hPa West 3.1 km/h   76 % 0 mm 93.0 W/m2 CLR
08:15 -8.2 °C -10.4 °C 34452.6 hPa Calm     77 % 0 mm 107.0 W/m2 CLR
08:20 -7.9 °C -10.4 °C 34442.4 hPa Calm     75 % 0 mm 118.0 W/m2 CLR
08:25 -7.7 °C -10.4 °C 34442.4 hPa Calm     74 % 0 mm 132.0 W/m2 CLR
08:30 -7.6 °C -10.3 °C 34442.4 hPa Calm     73 % 0 mm 149.0 W/m2 CLR
08:35 -7.3 °C -10.2 °C 34442.4 hPa Calm     72 % 0 mm 174.0 W/m2 CLR
08:40 -7.1 °C -10.1 °C 34442.4 hPa Calm     71 % 0 mm 206.0 W/m2 CLR
08:45 -6.8 °C -9.9 °C 34442.4 hPa Calm     70 % 0 mm 251.0 W/m2 CLR
08:50 -6.5 °C -9.9 °C 34442.4 hPa Calm     68 % 0 mm 288.0 W/m2 CLR
08:55 -6.2 °C -9.7 °C 34442.4 hPa Calm     67 % 0 mm 281.0 W/m2 CLR
09:00 -6 °C -10.1 °C 34442.4 hPa Calm     63 % 0 mm 276.0 W/m2 CLR
09:05 -5.8 °C -10 °C 34442.4 hPa Calm     62 % 0 mm 271.0 W/m2 CLR
09:10 -5.6 °C -9.8 °C 34442.4 hPa Calm     62 % 0 mm 264.0 W/m2 CLR
09:15 -5.3 °C -9.8 °C 34442.4 hPa Calm     60 % 0 mm 306.0 W/m2 CLR
09:20 -5.1 °C -9.7 °C 34442.4 hPa Calm     60 % 0 mm 329.0 W/m2 CLR
09:25 -4.9 °C -9.4 °C 34442.4 hPa Calm     60 % 0 mm 160.0 W/m2 CLR
09:30 -4.6 °C -9.5 °C 34442.4 hPa Calm     58 % 0 mm 330.0 W/m2 CLR
09:35 -4.6 °C -9.3 °C 34442.4 hPa Calm     59 % 0 mm 155.0 W/m2 CLR
09:40 -4.6 °C -8.9 °C 34428.8 hPa Calm     62 % 0 mm 406.0 W/m2 CLR
09:45 -4.5 °C -8.8 °C 34428.8 hPa Calm     62 % 0 mm 388.0 W/m2 CLR
09:50 -4.4 °C -8.8 °C 34428.8 hPa Calm     61 % 0 mm 397.0 W/m2 CLR
09:55 -4.3 °C -8.7 °C 34418.7 hPa Calm     61 % 0 mm 413.0 W/m2 CLR
10:00 -4.1 °C -8.7 °C 34418.7 hPa Calm     60 % 0 mm 427.0 W/m2 CLR
10:05 -3.9 °C -8.5 °C 34418.7 hPa Calm     60 % 0 mm 441.0 W/m2 CLR
10:10 -3.6 °C -8.2 °C 34418.7 hPa Calm     60 % 0 mm 454.0 W/m2 CLR
10:15 -3.3 °C -8.3 °C 34418.7 hPa Calm     58 % 0 mm 469.0 W/m2 CLR
10:20 -3.2 °C -8.3 °C 34428.8 hPa Calm     57 % 0 mm 490.0 W/m2 CLR
10:25 -3.1 °C -8.2 °C 34418.7 hPa Calm     57 % 0 mm 506.0 W/m2 CLR
10:30 -2.9 °C -8.2 °C 34418.7 hPa ENE 12.9 km/h 12.9 km/h 56 % 0 mm 519.0 W/m2 CLR
10:35 -2.8 °C -8.2 °C 34418.7 hPa ENE 10.3 km/h 10.3 km/h 55 % 0 mm 531.0 W/m2 CLR
10:40 -2.6 °C -8.6 °C 34418.7 hPa NE 9 km/h 9 km/h 52 % 0 mm 543.0 W/m2 CLR
10:45 -2.3 °C -8.3 °C 34418.7 hPa Calm     52 % 0 mm 557.0 W/m2 CLR
10:50 -2.1 °C -8.4 °C 34418.7 hPa East 18.2 km/h 18.2 km/h 50 % 0 mm 570.0 W/m2 CLR
10:55 -2.1 °C -8.6 °C 34418.7 hPa Calm     49 % 0 mm 582.0 W/m2 CLR
11:00 -1.9 °C -9.2 °C 34418.7 hPa NE 20.9 km/h 20.9 km/h 45 % 0 mm 598.0 W/m2 CLR
11:05 -1.8 °C -9.7 °C 34418.7 hPa NE 20.9 km/h 20.9 km/h 42 % 0 mm 599.0 W/m2 CLR
11:10 -1.7 °C -9.8 °C 34418.7 hPa NE 15 km/h 15 km/h 41 % 0 mm 615.0 W/m2 CLR
11:15 -1.6 °C -9.6 °C 34418.7 hPa NE 15 km/h 15 km/h 42 % 0 mm 622.0 W/m2 CLR
11:20 -1.6 °C -9.1 °C 34418.7 hPa NE 15.6 km/h 15.6 km/h 44 % 0 mm 640.0 W/m2 CLR
11:25 -1.6 °C -9.1 °C 34405.1 hPa ENE 15 km/h 15 km/h 44 % 0 mm 654.0 W/m2 CLR
11:30 -1.6 °C -9.4 °C 34418.7 hPa ESE 15 km/h 15 km/h 42 % 0 mm 663.0 W/m2 CLR
11:35 -1.6 °C -9.3 °C 34405.1 hPa ENE 12.9 km/h 12.9 km/h 43 % 0 mm 671.0 W/m2 CLR
11:40 -1.5 °C -9.4 °C 34405.1 hPa ENE 15 km/h 15 km/h 42 % 0 mm 682.0 W/m2 CLR
11:45 -1.4 °C -9.1 °C 34418.7 hPa East 23.3 km/h 23.3 km/h 43 % 0 mm 698.0 W/m2 CLR
11:50 -1.4 °C -9.1 °C 34405.1 hPa ESE 10.3 km/h 10.3 km/h 43 % 0 mm 703.0 W/m2 CLR
11:55 -1.5 °C -9.4 °C 34405.1 hPa Calm     42 % 0 mm 719.0 W/m2 CLR
12:00 -1.2 °C -9 °C 34405.1 hPa North 9 km/h   43 % 0 mm 729.0 W/m2 CLR
12:05 -0.9 °C -8.9 °C 34405.1 hPa ENE 9 km/h 9 km/h 42 % 0 mm 740.0 W/m2 CLR
12:10 -0.9 °C -8.8 °C 34405.1 hPa ENE 15 km/h 15 km/h 42 % 0 mm 754.0 W/m2 CLR
12:15 -0.8 °C -8.8 °C 34405.1 hPa SE 11.9 km/h 11.9 km/h 42 % 0 mm 805.0 W/m2 CLR
12:20 -0.8 °C -9 °C 34405.1 hPa East 9 km/h 9 km/h 41 % 0 mm 650.0 W/m2 CLR
12:25 -0.9 °C -8.7 °C 34405.1 hPa NE 9 km/h 9 km/h 43 % 0 mm 846.0 W/m2 CLR
12:30 -0.8 °C -8.6 °C 34395 hPa Calm     43 % 0 mm 522.0 W/m2 CLR
12:35 -0.6 °C -8 °C 34395 hPa East 15 km/h 15 km/h 45 % 0 mm 823.0 W/m2 CLR
12:40 -0.5 °C -8.1 °C 34395 hPa East 20.9 km/h 20.9 km/h 44 % 0 mm 847.0 W/m2 CLR
12:45 -0.7 °C -8.1 °C 34395 hPa ESE 11.9 km/h 11.9 km/h 45 % 0 mm 872.0 W/m2 CLR
12:50 -0.6 °C -8.2 °C 34395 hPa East 5.1 km/h 5.1 km/h 44 % 0 mm 879.0 W/m2 CLR
12:55 -0.3 °C -8.1 °C 34395 hPa NNE 15 km/h 15 km/h 43 % 0 mm 888.0 W/m2 CLR
13:00 -0.1 °C -7.9 °C 34384.8 hPa North 9 km/h 9 km/h 43 % 0 mm 909.0 W/m2 CLR
13:05 0.1 °C -8 °C 34384.8 hPa East 17.9 km/h 17.9 km/h 42 % 0 mm 925.0 W/m2 CLR
13:11 0.1 °C -7.9 °C 34384.8 hPa ENE 17.9 km/h 17.9 km/h 42 % 0 mm 884.0 W/m2 CLR
13:16 0.3 °C -7.8 °C 34384.8 hPa ESE 26.9 km/h 26.9 km/h 42 % 0 mm 847.0 W/m2 CLR
13:21 0.3 °C -8.2 °C 34384.8 hPa SE 23.8 km/h 23.8 km/h 40 % 0 mm 838.0 W/m2 CLR
13:26 0.3 °C -8.4 °C 34384.8 hPa SE 31.1 km/h 31.1 km/h 39 % 0 mm 835.0 W/m2 CLR
13:31 0.3 °C -8.4 °C 34371.3 hPa SSE 29.8 km/h 29.8 km/h 39 % 0 mm 838.0 W/m2 CLR
13:36 0.2 °C -7.9 °C 34371.3 hPa SSE 26.9 km/h 26.9 km/h 42 % 0 mm 838.0 W/m2 CLR
13:41 0.3 °C -7.7 °C 34371.3 hPa ESE 20.8 km/h 20.8 km/h 42 % 0 mm 831.0 W/m2 CLR
13:46 0.3 °C -7.7 °C 34371.3 hPa SE 29.8 km/h 29.8 km/h 42 % 0 mm 833.0 W/m2 CLR
13:51 0.4 °C -7.7 °C 34361.1 hPa East 20.9 km/h 20.9 km/h 42 % 0 mm 847.0 W/m2 CLR
13:56 0.6 °C -7.6 °C 34361.1 hPa SE 29.8 km/h 29.8 km/h 42 % 0 mm 861.0 W/m2 CLR
14:01 0.4 °C -7.7 °C 34371.3 hPa ESE 26.9 km/h 26.9 km/h 42 % 0 mm 633.0 W/m2 CLR
14:06 0.3 °C -7.6 °C 34371.3 hPa SSE 29.8 km/h 29.8 km/h 43 % 0 mm 868.0 W/m2 CLR
14:11 0.2 °C -7.8 °C 34361.1 hPa SE 29.8 km/h 29.8 km/h 42 % 0 mm 851.0 W/m2 CLR
14:16 0.3 °C -7.6 °C 34361.1 hPa ESE 29.8 km/h 29.8 km/h 43 % 0 mm 853.0 W/m2 CLR
14:21 0.3 °C -7.8 °C 34361.1 hPa SE 32.8 km/h 32.8 km/h 42 % 0 mm 833.0 W/m2 CLR
14:26 0.2 °C -7.7 °C 34347.6 hPa ESE 38.8 km/h 38.8 km/h 43 % 0 mm 868.0 W/m2 CLR
14:31 0.2 °C -7.4 °C 34347.6 hPa East 38.8 km/h 38.8 km/h 44 % 0 mm 882.0 W/m2 CLR
14:36 0.4 °C -7.5 °C 34337.4 hPa ESE 29.8 km/h 29.8 km/h 43 % 0 mm 923.0 W/m2 CLR
14:41 0.7 °C -7.3 °C 34347.6 hPa East 41.4 km/h 41.4 km/h 43 % 0 mm 881.0 W/m2 CLR
14:46 0.4 °C -7.4 °C 34347.6 hPa ESE 35.7 km/h 35.7 km/h 43 % 0 mm 585.0 W/m2 CLR
14:51 0.3 °C -7.3 °C 34347.6 hPa ESE 35.7 km/h 35.7 km/h 44 % 0 mm 680.0 W/m2 CLR
14:56 0.2 °C -7.6 °C 34347.6 hPa ESE 41.4 km/h 41.4 km/h 44 % 0 mm 304.0 W/m2 CLR
15:01 0.1 °C -7.4 °C 34347.6 hPa SE 29.8 km/h 29.8 km/h 45 % 0 mm 272.0 W/m2 CLR
15:06 -0.1 °C -7.4 °C 34361.1 hPa SSE 29.8 km/h 29.8 km/h 45 % 0 mm 260.0 W/m2 CLR
15:11 -0.2 °C -7.2 °C 34361.1 hPa SE 35.7 km/h 35.7 km/h 47 % 0 mm 250.0 W/m2 CLR
15:16 -0.4 °C -7.3 °C 34347.6 hPa SE 38.8 km/h 38.8 km/h 48 % 0 mm 227.0 W/m2 CLR
15:21 -0.5 °C -7.2 °C 34337.4 hPa ESE 29.8 km/h 29.8 km/h 49 % 0 mm 176.0 W/m2 CLR
15:26 -0.7 °C -7.1 °C 34337.4 hPa East 31.1 km/h 31.1 km/h 50 % 0 mm 132.0 W/m2 CLR
15:31 -1 °C -7.1 °C 34337.4 hPa ESE 35.7 km/h 35.7 km/h 52 % 0 mm 100.0 W/m2 CLR
15:36 -1.1 °C -6.9 °C 34337.4 hPa ESE 35.7 km/h 35.7 km/h 53 % 0 mm 81.0 W/m2 CLR
15:41 -1.2 °C -6.9 °C 34347.6 hPa ESE 35.7 km/h 35.7 km/h 54 % 0 mm 72.0 W/m2 FEW
15:46 -1.6 °C -7 °C 34347.6 hPa ESE 29.8 km/h 29.8 km/h 56 % 0 mm 72.0 W/m2 FEW
15:51 -1.8 °C -7 °C 34347.6 hPa East 38.8 km/h 38.8 km/h 57 % 0 mm 72.0 W/m2 FEW
15:56 -1.8 °C -6.9 °C 34347.6 hPa ESE 32.8 km/h 32.8 km/h 58 % 0 mm 69.0 W/m2 FEW
16:01 -1.8 °C -6.8 °C 34361.1 hPa ESE 15.6 km/h 15.6 km/h 58 % 0 mm 62.0 W/m2 FEW
16:06 -1.7 °C -6.9 °C 34347.6 hPa ESE 17.9 km/h 17.9 km/h 57 % 0 mm 56.0 W/m2 SCT
16:11 -1.8 °C -6.8 °C 34347.6 hPa East 17.9 km/h 17.9 km/h 58 % 0 mm 54.0 W/m2 SCT
16:16 -1.9 °C -6.8 °C 34347.6 hPa ENE 23.8 km/h 23.8 km/h 59 % 0 mm 44.0 W/m2 SCT
16:21 -2.1 °C -6.9 °C 34337.4 hPa ENE 17.9 km/h 17.9 km/h 59 % 0 mm 37.0 W/m2 BKN
16:26 -2.1 °C -6.8 °C 34361.1 hPa Calm     60 % 0 mm 33.0 W/m2 BKN
16:31 -2.1 °C -7 °C 34337.4 hPa ESE 20.9 km/h 20.9 km/h 59 % 0 mm 26.0 W/m2 BKN
16:36 -2.2 °C -7.1 °C 34347.6 hPa SE 38.8 km/h 38.8 km/h 59 % 0 mm 21.0 W/m2 BKN
16:41 -2.3 °C -7 °C 34337.4 hPa ESE 38.8 km/h 38.8 km/h 60 % 0 mm 18.0 W/m2 BKN
16:46 -2.4 °C -6.9 °C 34371.3 hPa Calm     61 % 0 mm 16.0 W/m2 BKN
16:51 -2.4 °C -6.9 °C 34384.8 hPa Calm     61 % 0 mm 14.0 W/m2 BKN
16:56 -2.4 °C -7 °C 34384.8 hPa NE 12.9 km/h 12.9 km/h 61 % 0 mm 14.0 W/m2 BKN
17:01 -2.4 °C -6.9 °C 34384.8 hPa ENE 17.9 km/h 17.9 km/h 62 % 0 mm 12.0 W/m2 BKN
17:06 -2.6 °C -6.8 °C 34384.8 hPa ENE 17.9 km/h 17.9 km/h 63 % 0 mm 12.0 W/m2 BKN
17:11 -2.7 °C -6.9 °C 34371.3 hPa NE 18.2 km/h 18.2 km/h 63 % 0 mm 11.0 W/m2 BKN
17:16 -2.7 °C -6.8 °C 34371.3 hPa NE 20.9 km/h 20.9 km/h 64 % 0 mm 12.0 W/m2 BKN
17:21 -2.8 °C -6.9 °C 34384.8 hPa East 15 km/h 15 km/h 64 % 0 mm 12.0 W/m2 BKN
17:26 -2.8 °C -6.8 °C 34384.8 hPa ESE 10.3 km/h 10.3 km/h 65 % 0 mm 14.0 W/m2 BKN
17:31 -2.8 °C -6.9 °C 34371.3 hPa ESE 15 km/h 15 km/h 64 % 0 mm 16.0 W/m2 BKN
17:36 -2.8 °C -7.1 °C 34395 hPa SE 26.9 km/h 26.9 km/h 63 % 0 mm 18.0 W/m2 BKN
17:41 -2.7 °C -7 °C 34384.8 hPa South 31.1 km/h 31.1 km/h 63 % 0 mm 18.0 W/m2 BKN
17:46 -2.6 °C -7.4 °C 34337.4 hPa SSE 62.6 km/h 62.6 km/h 59 % 0 mm 19.0 W/m2 BKN
17:51 -1 °C -7.4 °C 34361.1 hPa SSE 71.5 km/h 71.5 km/h 50 % 0 mm 21.0 W/m2 BKN
17:56 -2.6 °C -7.1 °C 34347.6 hPa South 50.7 km/h 50.7 km/h 61 % 0 mm 19.0 W/m2 BKN
18:01 -2.9 °C -7 °C 34361.1 hPa South 50.7 km/h 50.7 km/h 64 % 0 mm 21.0 W/m2 BKN
18:06 -2.9 °C -7.1 °C 34371.3 hPa SSW 77.4 km/h 77.4 km/h 64 % 0 mm 23.0 W/m2 BKN
18:11 -2.9 °C -6.9 °C 34361.1 hPa South 74.5 km/h 74.5 km/h 65 % 0 mm 26.0 W/m2 BKN
18:16 -3 °C -6.8 °C 34347.6 hPa South 68.6 km/h 68.6 km/h 66 % 0 mm 30.0 W/m2 BKN
18:21 -3.1 °C -6.8 °C 34347.6 hPa South 77.4 km/h 77.4 km/h 67 % 7.62 mm 32.0 W/m2 RA
18:26 -3 °C -7.4 °C 34337.4 hPa South 77.4 km/h 77.4 km/h 62 % 7.62 mm 37.0 W/m2 BKN
18:31 -3.2 °C -7 °C 34337.4 hPa SSE 71.5 km/h 71.5 km/h 66 % 7.62 mm 44.0 W/m2 BKN
18:36 -3.3 °C -7.2 °C 34337.4 hPa SSE 59.5 km/h 59.5 km/h 65 % 7.62 mm 53.0 W/m2 BKN
18:41 -2.7 °C -8 °C 34327.3 hPa South 53.6 km/h 53.6 km/h 56 % 7.62 mm 65.0 W/m2 SCT
18:46 -2.3 °C -8.4 °C 34327.3 hPa South 68.6 km/h 68.6 km/h 51 % 7.62 mm 83.0 W/m2 SCT
18:51 -2.5 °C -8.3 °C 34313.7 hPa South 68.6 km/h 68.6 km/h 53 % 7.62 mm 95.0 W/m2 FEW
18:56 -1.8 °C -9.4 °C 34313.7 hPa SSW 68.6 km/h 68.6 km/h 43 % 7.62 mm 97.0 W/m2 CLR
19:01 -1.3 °C -9.5 °C 34313.7 hPa SE 32.8 km/h 32.8 km/h 41 % 7.62 mm 79.0 W/m2 CLR
19:06 -1.7 °C -8.2 °C 34337.4 hPa SSW 33.6 km/h 33.6 km/h 49 % 7.62 mm 60.0 W/m2 FEW
19:11 -2.5 °C -7.9 °C 34337.4 hPa SSE 69.8 km/h 69.8 km/h 55 % 7.62 mm 76.0 W/m2 FEW
19:16 -2.3 °C -8.1 °C 34337.4 hPa South 62.6 km/h 62.6 km/h 53 % 7.62 mm 84.0 W/m2 FEW
19:27 -2.3 °C -8.3 °C 34303.6 hPa SSE 93.2 km/h 93.2 km/h 52 % 0 mm 90.0 W/m2 CLR
19:32 -1.9 °C -8.6 °C 34313.7 hPa SW 44.7 km/h 44.7 km/h 48 % 0 mm 84.0 W/m2 CLR
19:37 -1.7 °C -8.6 °C 34313.7 hPa SW 23.8 km/h 23.8 km/h 47 % 0 mm 90.0 W/m2 CLR
19:42 -1.7 °C -8.1 °C 34327.3 hPa SW 32.8 km/h 32.8 km/h 50 % 0 mm 190.0 W/m2 CLR
19:47 -1.8 °C -7.7 °C 34337.4 hPa SSW 29.8 km/h 29.8 km/h 53 % 0 mm 181.0 W/m2 CLR
19:52 -1.9 °C -7.6 °C 34337.4 hPa South 53.6 km/h 53.6 km/h 54 % 0 mm 167.0 W/m2 CLR
19:57 -1.9 °C -7.6 °C 34327.3 hPa South 38.8 km/h 38.8 km/h 54 % 0 mm 149.0 W/m2 CLR
20:02 -1.8 °C -7.7 °C 34327.3 hPa South 49.2 km/h 49.2 km/h 53 % 0 mm 135.0 W/m2 CLR
20:07 -1.7 °C -7.9 °C 34337.4 hPa SSE 29.8 km/h 29.8 km/h 51 % 0 mm 125.0 W/m2 CLR
20:12 -1.6 °C -8 °C 34337.4 hPa South 15 km/h 15 km/h 50 % 0 mm 116.0 W/m2 CLR
20:17 -1.6 °C -8.1 °C 34327.3 hPa ESE 23.8 km/h 23.8 km/h 49 % 0 mm 98.0 W/m2 CLR
20:22 -1.5 °C -7.9 °C 34337.4 hPa Calm     50 % 0 mm 84.0 W/m2 CLR
20:27 -1.6 °C -8.2 °C 34337.4 hPa ENE 11.9 km/h 12.9 km/h 49 % 0 mm 65.0 W/m2 SCT
20:32 -1.6 °C -8.2 °C 34347.6 hPa Calm     49 % 0 mm 44.0 W/m2 BKN
20:37 -1.7 °C -7.9 °C 34347.6 hPa NNW 29.8 km/h 29.8 km/h 51 % 0 mm 32.0 W/m2 BKN
20:42 -1.8 °C -8.2 °C 34361.1 hPa NW 6 km/h 6 km/h 50 % 0 mm 23.0 W/m2 BKN
20:47 -1.8 °C -8.3 °C 34361.1 hPa Calm     49 % 0 mm 16.0 W/m2 BKN
20:52 -1.7 °C -8.3 °C 34361.1 hPa Calm     49 % 0 mm 11.0 W/m2 BKN
20:57 -1.9 °C -8.1 °C 34371.3 hPa Calm     51 % 0 mm 7.0 W/m2 BKN
21:02 -2 °C -8.4 °C 34371.3 hPa Calm     50 % 0 mm 0.0 W/m2 CLR
21:07 -2 °C -8.5 °C 34371.3 hPa SE 12.9 km/h 12.9 km/h 49 % 0 mm 0.0 W/m2 CLR
21:12 -1.8 °C -8.5 °C 34371.3 hPa Calm     48 % 0 mm 0.0 W/m2 CLR
21:17 -1.8 °C -8.7 °C 34371.3 hPa Calm     47 % 0 mm 0.0 W/m2 CLR
21:22 -2.1 °C -7.9 °C 34371.3 hPa Calm     53 % 0 mm 0.0 W/m2 CLR
21:27 -2.4 °C -7.7 °C 34371.3 hPa Calm     56 % 0 mm 0.0 W/m2 CLR
21:32 -2.8 °C -7.6 °C 34371.3 hPa Calm     59 % 0 mm 0.0 W/m2 CLR
21:37 -3 °C -7.7 °C 34384.8 hPa Calm     60 % 0 mm 0.0 W/m2 CLR
21:42 -3.2 °C -7.7 °C 34384.8 hPa Calm     61 % 0 mm 0.0 W/m2 CLR
21:47 -3.4 °C -7.8 °C 34384.8 hPa NE 15 km/h 15 km/h 62 % 0 mm 0.0 W/m2 CLR
21:52 -3.4 °C -7.6 °C 34384.8 hPa NE 9 km/h 10.1 km/h 63 % 0 mm 0.0 W/m2 CLR
21:57 -3.6 °C -7.4 °C 34395 hPa Calm   1 km/h 65 % 0 mm 0.0 W/m2 CLR
22:02 -3.7 °C -7.5 °C 34395 hPa NE 11.9 km/h 11.9 km/h 66 % 0 mm 0.0 W/m2 CLR
22:07 -3.8 °C -7.3 °C 34395 hPa North 15 km/h 15 km/h 68 % 0 mm 0.0 W/m2 CLR
22:12 -4 °C -7.3 °C 34395 hPa Calm     70 % 0 mm 0.0 W/m2 CLR
22:17 -4.1 °C -7.2 °C 34405.1 hPa Calm     71 % 0 mm 0.0 W/m2 CLR
22:22 -4.2 °C -7.3 °C 34405.1 hPa Calm     71 % 0 mm 0.0 W/m2 CLR
22:27 -4.3 °C -7.3 °C 34405.1 hPa Calm     72 % 0 mm 0.0 W/m2 CLR
22:32 -4.3 °C -7.2 °C 34418.7 hPa Calm     73 % 0 mm 0.0 W/m2 CLR
22:37 -4.4 °C -7.1 °C 34418.7 hPa NE 17.9 km/h 17.9 km/h 74 % 0 mm 0.0 W/m2 CLR
22:42 -4.4 °C -7.2 °C 34418.7 hPa Calm     74 % 0 mm 0.0 W/m2 CLR
22:47 -4.5 °C -7.1 °C 34418.7 hPa Calm     75 % 0 mm 0.0 W/m2 CLR
22:53 -4.6 °C -7.2 °C 34418.7 hPa NE 12.9 km/h 12.9 km/h 75 % 0 mm 0.0 W/m2 CLR
22:58 -4.7 °C -7.1 °C 34418.7 hPa Calm     77 % 0 mm 0.0 W/m2 CLR
23:03 -4.8 °C -7.1 °C 34428.8 hPa Calm     77 % 0 mm 0.0 W/m2 CLR
23:08 -4.8 °C -7.1 °C 34428.8 hPa Calm     78 % 0 mm 0.0 W/m2 CLR
23:13 -4.9 °C -7.1 °C 34428.8 hPa Calm     78 % 0 mm 0.0 W/m2 CLR
23:18 -4.9 °C -7.1 °C 34428.8 hPa Calm     79 % 0 mm 0.0 W/m2 CLR
23:23 -4.9 °C -7.1 °C 34428.8 hPa Calm     79 % 0 mm 0.0 W/m2 CLR
23:28 -5 °C -7 °C 34428.8 hPa Calm     80 % 0 mm 0.0 W/m2 CLR
23:33 -5.1 °C -7.1 °C 34428.8 hPa Calm     80 % 0 mm 0.0 W/m2 CLR
23:38 -5.1 °C -7.1 °C 34428.8 hPa Calm     81 % 0 mm 0.0 W/m2 CLR
23:43 -5.2 °C -7.1 °C 34442.4 hPa Calm     81 % 0 mm 0.0 W/m2 CLR
23:48 -5.2 °C -7.2 °C 34442.4 hPa Calm     81 % 0 mm 0.0 W/m2 CLR
23:53 -5.3 °C -7.2 °C 34442.4 hPa Calm     81 % 0 mm 0.0 W/m2 CLR
23:58 -5.3 °C -7.3 °C 34442.4 hPa Calm     81 % 0 mm 0.0 W/m2 CLR
Lo Temps de Massalio
Compliments of Weather Underground - 1.25 mb